sensor_id;sensor_type;location;lat;lon;timestamp;P1;durP1;ratioP1;P2;durP2;ratioP2
77191;SDS011;66172;48.526;8.078;2023-08-17T00:02:19;9.23;;;4.70;;
77191;SDS011;66172;48.526;8.078;2023-08-17T00:04:45;10.43;;;4.80;;
77191;SDS011;66172;48.526;8.078;2023-08-17T00:07:11;8.90;;;5.57;;
77191;SDS011;66172;48.526;8.078;2023-08-17T00:09:37;8.50;;;5.20;;
77191;SDS011;66172;48.526;8.078;2023-08-17T00:12:03;9.43;;;4.72;;
77191;SDS011;66172;48.526;8.078;2023-08-17T00:14:29;9.52;;;4.72;;
77191;SDS011;66172;48.526;8.078;2023-08-17T00:16:56;8.38;;;4.40;;
77191;SDS011;66172;48.526;8.078;2023-08-17T00:19:22;10.17;;;5.00;;
77191;SDS011;66172;48.526;8.078;2023-08-17T00:21:47;9.23;;;4.93;;
77191;SDS011;66172;48.526;8.078;2023-08-17T00:24:13;9.75;;;4.78;;
77191;SDS011;66172;48.526;8.078;2023-08-17T00:26:39;12.40;;;4.13;;
77191;SDS011;66172;48.526;8.078;2023-08-17T00:29:05;8.10;;;4.57;;
77191;SDS011;66172;48.526;8.078;2023-08-17T00:31:31;7.55;;;4.20;;
77191;SDS011;66172;48.526;8.078;2023-08-17T00:33:57;13.65;;;4.75;;
77191;SDS011;66172;48.526;8.078;2023-08-17T00:36:23;7.43;;;4.50;;
77191;SDS011;66172;48.526;8.078;2023-08-17T00:38:49;9.63;;;5.15;;
77191;SDS011;66172;48.526;8.078;2023-08-17T00:41:14;8.13;;;4.25;;
77191;SDS011;66172;48.526;8.078;2023-08-17T00:43:40;10.67;;;4.40;;
77191;SDS011;66172;48.526;8.078;2023-08-17T00:46:06;10.50;;;4.40;;
77191;SDS011;66172;48.526;8.078;2023-08-17T00:48:33;8.75;;;4.65;;
77191;SDS011;66172;48.526;8.078;2023-08-17T00:50:59;11.48;;;4.90;;
77191;SDS011;66172;48.526;8.078;2023-08-17T00:53:28;8.50;;;4.70;;
77191;SDS011;66172;48.526;8.078;2023-08-17T00:55:56;7.70;;;4.20;;
77191;SDS011;66172;48.526;8.078;2023-08-17T00:58:22;9.38;;;5.00;;
77191;SDS011;66172;48.526;8.078;2023-08-17T01:00:48;10.23;;;5.07;;
77191;SDS011;66172;48.526;8.078;2023-08-17T01:03:15;9.10;;;4.95;;
77191;SDS011;66172;48.526;8.078;2023-08-17T01:05:41;10.77;;;4.77;;
77191;SDS011;66172;48.526;8.078;2023-08-17T01:08:06;8.32;;;4.47;;
77191;SDS011;66172;48.526;8.078;2023-08-17T01:10:52;10.07;;;4.45;;
77191;SDS011;66172;48.526;8.078;2023-08-17T01:13:25;8.27;;;5.03;;
77191;SDS011;66172;48.526;8.078;2023-08-17T01:16:33;12.40;;;4.93;;
77191;SDS011;66172;48.526;8.078;2023-08-17T01:19:26;9.23;;;4.47;;
77191;SDS011;66172;48.526;8.078;2023-08-17T01:22:03;7.57;;;4.72;;
77191;SDS011;66172;48.526;8.078;2023-08-17T01:24:30;9.00;;;4.85;;
77191;SDS011;66172;48.526;8.078;2023-08-17T01:26:56;7.40;;;4.80;;
77191;SDS011;66172;48.526;8.078;2023-08-17T01:29:22;8.37;;;4.70;;
77191;SDS011;66172;48.526;8.078;2023-08-17T01:31:59;9.75;;;4.50;;
77191;SDS011;66172;48.526;8.078;2023-08-17T01:34:33;8.82;;;4.88;;
77191;SDS011;66172;48.526;8.078;2023-08-17T01:37:06;10.77;;;4.80;;
77191;SDS011;66172;48.526;8.078;2023-08-17T01:39:37;8.90;;;4.73;;
77191;SDS011;66172;48.526;8.078;2023-08-17T01:42:05;10.77;;;4.35;;
77191;SDS011;66172;48.526;8.078;2023-08-17T01:44:32;9.32;;;4.53;;
77191;SDS011;66172;48.526;8.078;2023-08-17T01:46:58;8.77;;;4.50;;
77191;SDS011;66172;48.526;8.078;2023-08-17T01:49:24;16.15;;;4.72;;
77191;SDS011;66172;48.526;8.078;2023-08-17T01:51:50;7.70;;;4.20;;
77191;SDS011;66172;48.526;8.078;2023-08-17T01:54:16;8.07;;;4.40;;
77191;SDS011;66172;48.526;8.078;2023-08-17T01:56:42;11.02;;;4.95;;
77191;SDS011;66172;48.526;8.078;2023-08-17T01:59:08;9.40;;;4.70;;
77191;SDS011;66172;48.526;8.078;2023-08-17T02:01:34;9.52;;;4.38;;
77191;SDS011;66172;48.526;8.078;2023-08-17T02:03:59;8.23;;;4.90;;
77191;SDS011;66172;48.526;8.078;2023-08-17T02:06:28;10.02;;;4.75;;
77191;SDS011;66172;48.526;8.078;2023-08-17T02:08:54;10.97;;;4.67;;
77191;SDS011;66172;48.526;8.078;2023-08-17T02:11:20;10.00;;;4.38;;
77191;SDS011;66172;48.526;8.078;2023-08-17T02:13:46;10.73;;;5.03;;
77191;SDS011;66172;48.526;8.078;2023-08-17T02:16:12;9.15;;;4.65;;
77191;SDS011;66172;48.526;8.078;2023-08-17T02:18:38;10.70;;;5.43;;
77191;SDS011;66172;48.526;8.078;2023-08-17T02:21:04;8.10;;;5.00;;
77191;SDS011;66172;48.526;8.078;2023-08-17T02:23:30;11.15;;;5.45;;
77191;SDS011;66172;48.526;8.078;2023-08-17T02:25:56;8.38;;;4.70;;
77191;SDS011;66172;48.526;8.078;2023-08-17T02:28:21;9.93;;;5.07;;
77191;SDS011;66172;48.526;8.078;2023-08-17T02:30:47;8.60;;;5.18;;
77191;SDS011;66172;48.526;8.078;2023-08-17T02:33:14;12.40;;;4.93;;
77191;SDS011;66172;48.526;8.078;2023-08-17T02:35:40;9.88;;;4.97;;
77191;SDS011;66172;48.526;8.078;2023-08-17T02:38:06;10.27;;;4.83;;
77191;SDS011;66172;48.526;8.078;2023-08-17T02:40:32;9.38;;;5.32;;
77191;SDS011;66172;48.526;8.078;2023-08-17T02:42:57;8.05;;;5.10;;
77191;SDS011;66172;48.526;8.078;2023-08-17T02:45:23;12.60;;;5.03;;
77191;SDS011;66172;48.526;8.078;2023-08-17T02:47:49;8.98;;;5.15;;
77191;SDS011;66172;48.526;8.078;2023-08-17T02:50:15;9.90;;;5.15;;
77191;SDS011;66172;48.526;8.078;2023-08-17T02:52:42;9.32;;;5.28;;
77191;SDS011;66172;48.526;8.078;2023-08-17T02:55:08;11.10;;;5.23;;
77191;SDS011;66172;48.526;8.078;2023-08-17T02:57:34;11.07;;;5.15;;
77191;SDS011;66172;48.526;8.078;2023-08-17T03:00:00;8.93;;;5.07;;
77191;SDS011;66172;48.526;8.078;2023-08-17T03:02:25;11.48;;;4.80;;
77191;SDS011;66172;48.526;8.078;2023-08-17T03:04:51;9.73;;;5.00;;
77191;SDS011;66172;48.526;8.078;2023-08-17T03:07:17;10.80;;;4.80;;
77191;SDS011;66172;48.526;8.078;2023-08-17T03:09:43;8.77;;;5.43;;
77191;SDS011;66172;48.526;8.078;2023-08-17T03:12:09;8.67;;;4.73;;
77191;SDS011;66172;48.526;8.078;2023-08-17T03:14:35;9.85;;;4.70;;
77191;SDS011;66172;48.526;8.078;2023-08-17T03:17:01;8.57;;;4.72;;
77191;SDS011;66172;48.526;8.078;2023-08-17T03:19:27;8.57;;;4.90;;
77191;SDS011;66172;48.526;8.078;2023-08-17T03:21:53;7.93;;;4.63;;
77191;SDS011;66172;48.526;8.078;2023-08-17T03:24:18;9.75;;;5.13;;
77191;SDS011;66172;48.526;8.078;2023-08-17T03:26:44;8.20;;;4.93;;
77191;SDS011;66172;48.526;8.078;2023-08-17T03:29:10;9.40;;;5.30;;
77191;SDS011;66172;48.526;8.078;2023-08-17T03:31:36;13.48;;;5.10;;
77191;SDS011;66172;48.526;8.078;2023-08-17T03:34:02;9.52;;;4.63;;
77191;SDS011;66172;48.526;8.078;2023-08-17T03:36:28;15.95;;;5.45;;
77191;SDS011;66172;48.526;8.078;2023-08-17T03:38:54;9.27;;;4.60;;
77191;SDS011;66172;48.526;8.078;2023-08-17T03:41:21;9.00;;;5.07;;
77191;SDS011;66172;48.526;8.078;2023-08-17T03:43:49;10.30;;;4.70;;
77191;SDS011;66172;48.526;8.078;2023-08-17T03:46:14;11.17;;;5.00;;
77191;SDS011;66172;48.526;8.078;2023-08-17T03:48:40;9.23;;;5.10;;
77191;SDS011;66172;48.526;8.078;2023-08-17T03:51:06;10.77;;;4.72;;
77191;SDS011;66172;48.526;8.078;2023-08-17T03:53:32;9.50;;;4.50;;
77191;SDS011;66172;48.526;8.078;2023-08-17T03:55:58;8.43;;;4.70;;
77191;SDS011;66172;48.526;8.078;2023-08-17T03:58:24;10.40;;;4.83;;
77191;SDS011;66172;48.526;8.078;2023-08-17T04:00:52;9.90;;;4.80;;
77191;SDS011;66172;48.526;8.078;2023-08-17T04:03:19;8.95;;;4.82;;
77191;SDS011;66172;48.526;8.078;2023-08-17T04:05:45;8.77;;;4.88;;
77191;SDS011;66172;48.526;8.078;2023-08-17T04:08:11;11.80;;;4.37;;
77191;SDS011;66172;48.526;8.078;2023-08-17T04:10:36;9.77;;;4.93;;
77191;SDS011;66172;48.526;8.078;2023-08-17T04:13:03;8.27;;;4.68;;
77191;SDS011;66172;48.526;8.078;2023-08-17T04:15:28;9.93;;;4.45;;
77191;SDS011;66172;48.526;8.078;2023-08-17T04:17:54;11.13;;;4.90;;
77191;SDS011;66172;48.526;8.078;2023-08-17T04:20:20;7.82;;;4.70;;
77191;SDS011;66172;48.526;8.078;2023-08-17T04:22:48;8.48;;;4.75;;
77191;SDS011;66172;48.526;8.078;2023-08-17T04:25:14;7.68;;;4.50;;
77191;SDS011;66172;48.526;8.078;2023-08-17T04:27:41;11.33;;;5.00;;
77191;SDS011;66172;48.526;8.078;2023-08-17T04:30:07;12.27;;;5.05;;
77191;SDS011;66172;48.526;8.078;2023-08-17T04:32:33;9.63;;;4.85;;
77191;SDS011;66172;48.526;8.078;2023-08-17T04:34:59;8.25;;;4.60;;
77191;SDS011;66172;48.526;8.078;2023-08-17T04:37:25;8.20;;;4.70;;
77191;SDS011;66172;48.526;8.078;2023-08-17T04:39:51;9.32;;;4.80;;
77191;SDS011;66172;48.526;8.078;2023-08-17T04:42:17;11.52;;;4.75;;
77191;SDS011;66172;48.526;8.078;2023-08-17T04:44:45;11.23;;;5.33;;
77191;SDS011;66172;48.526;8.078;2023-08-17T04:47:11;11.00;;;4.65;;
77191;SDS011;66172;48.526;8.078;2023-08-17T04:49:37;9.93;;;4.43;;
77191;SDS011;66172;48.526;8.078;2023-08-17T04:52:03;8.30;;;4.47;;
77191;SDS011;66172;48.526;8.078;2023-08-17T04:54:29;9.80;;;5.35;;
77191;SDS011;66172;48.526;8.078;2023-08-17T04:56:55;10.17;;;5.13;;
77191;SDS011;66172;48.526;8.078;2023-08-17T04:59:21;9.63;;;5.50;;
77191;SDS011;66172;48.526;8.078;2023-08-17T05:01:47;14.10;;;5.20;;
77191;SDS011;66172;48.526;8.078;2023-08-17T05:04:13;9.02;;;5.28;;
77191;SDS011;66172;48.526;8.078;2023-08-17T05:06:39;10.83;;;4.80;;
77191;SDS011;66172;48.526;8.078;2023-08-17T05:09:05;9.63;;;5.10;;
77191;SDS011;66172;48.526;8.078;2023-08-17T05:11:31;10.55;;;4.90;;
77191;SDS011;66172;48.526;8.078;2023-08-17T05:13:57;11.03;;;4.90;;
77191;SDS011;66172;48.526;8.078;2023-08-17T05:16:23;8.97;;;5.20;;
77191;SDS011;66172;48.526;8.078;2023-08-17T05:18:48;9.88;;;5.13;;
77191;SDS011;66172;48.526;8.078;2023-08-17T05:21:14;9.75;;;5.25;;
77191;SDS011;66172;48.526;8.078;2023-08-17T05:23:40;10.70;;;5.17;;
77191;SDS011;66172;48.526;8.078;2023-08-17T05:26:06;11.68;;;5.22;;
77191;SDS011;66172;48.526;8.078;2023-08-17T05:28:33;10.13;;;5.25;;
77191;SDS011;66172;48.526;8.078;2023-08-17T05:31:05;9.73;;;5.00;;
77191;SDS011;66172;48.526;8.078;2023-08-17T05:33:32;8.53;;;4.90;;
77191;SDS011;66172;48.526;8.078;2023-08-17T05:35:58;9.85;;;5.15;;
77191;SDS011;66172;48.526;8.078;2023-08-17T05:38:24;8.80;;;5.25;;
77191;SDS011;66172;48.526;8.078;2023-08-17T05:40:54;9.13;;;5.00;;
77191;SDS011;66172;48.526;8.078;2023-08-17T05:43:21;10.77;;;5.15;;
77191;SDS011;66172;48.526;8.078;2023-08-17T05:45:46;7.90;;;5.20;;
77191;SDS011;66172;48.526;8.078;2023-08-17T05:48:12;10.70;;;5.55;;
77191;SDS011;66172;48.526;8.078;2023-08-17T05:50:41;12.30;;;5.20;;
77191;SDS011;66172;48.526;8.078;2023-08-17T05:53:07;9.52;;;5.03;;
77191;SDS011;66172;48.526;8.078;2023-08-17T05:55:33;14.03;;;5.90;;
77191;SDS011;66172;48.526;8.078;2023-08-17T05:57:59;11.35;;;5.43;;
77191;SDS011;66172;48.526;8.078;2023-08-17T06:00:25;8.77;;;5.10;;
77191;SDS011;66172;48.526;8.078;2023-08-17T06:02:51;11.63;;;5.60;;
77191;SDS011;66172;48.526;8.078;2023-08-17T06:05:17;12.13;;;5.73;;
77191;SDS011;66172;48.526;8.078;2023-08-17T06:07:43;11.45;;;5.60;;
77191;SDS011;66172;48.526;8.078;2023-08-17T06:10:09;11.25;;;5.15;;
77191;SDS011;66172;48.526;8.078;2023-08-17T06:12:35;10.27;;;5.88;;
77191;SDS011;66172;48.526;8.078;2023-08-17T06:15:02;9.93;;;5.57;;
77191;SDS011;66172;48.526;8.078;2023-08-17T06:17:28;11.23;;;5.57;;
77191;SDS011;66172;48.526;8.078;2023-08-17T06:19:54;11.63;;;5.43;;
77191;SDS011;66172;48.526;8.078;2023-08-17T06:22:20;12.50;;;5.40;;
77191;SDS011;66172;48.526;8.078;2023-08-17T06:24:46;13.50;;;5.80;;
77191;SDS011;66172;48.526;8.078;2023-08-17T06:27:13;12.55;;;5.10;;
77191;SDS011;66172;48.526;8.078;2023-08-17T06:29:40;10.32;;;5.57;;
77191;SDS011;66172;48.526;8.078;2023-08-17T06:32:06;11.43;;;5.68;;
77191;SDS011;66172;48.526;8.078;2023-08-17T06:34:32;11.23;;;5.73;;
77191;SDS011;66172;48.526;8.078;2023-08-17T06:36:58;11.82;;;5.75;;
77191;SDS011;66172;48.526;8.078;2023-08-17T06:39:27;13.10;;;6.32;;
77191;SDS011;66172;48.526;8.078;2023-08-17T06:41:53;11.80;;;6.20;;
77191;SDS011;66172;48.526;8.078;2023-08-17T06:44:19;10.47;;;5.83;;
77191;SDS011;66172;48.526;8.078;2023-08-17T06:46:45;10.18;;;5.65;;
77191;SDS011;66172;48.526;8.078;2023-08-17T06:49:11;13.02;;;6.00;;
77191;SDS011;66172;48.526;8.078;2023-08-17T06:51:38;10.20;;;5.45;;
77191;SDS011;66172;48.526;8.078;2023-08-17T06:54:04;10.70;;;5.80;;
77191;SDS011;66172;48.526;8.078;2023-08-17T06:56:32;10.77;;;5.63;;
77191;SDS011;66172;48.526;8.078;2023-08-17T06:58:58;10.85;;;5.88;;
77191;SDS011;66172;48.526;8.078;2023-08-17T07:01:24;9.75;;;5.07;;
77191;SDS011;66172;48.526;8.078;2023-08-17T07:03:49;10.10;;;5.57;;
77191;SDS011;66172;48.526;8.078;2023-08-17T07:06:15;12.77;;;6.10;;
77191;SDS011;66172;48.526;8.078;2023-08-17T07:08:41;11.73;;;6.03;;
77191;SDS011;66172;48.526;8.078;2023-08-17T07:11:07;11.88;;;6.03;;
77191;SDS011;66172;48.526;8.078;2023-08-17T07:13:34;10.47;;;5.47;;
77191;SDS011;66172;48.526;8.078;2023-08-17T07:16:00;11.57;;;6.03;;
77191;SDS011;66172;48.526;8.078;2023-08-17T07:18:26;12.27;;;5.93;;
77191;SDS011;66172;48.526;8.078;2023-08-17T07:20:51;10.77;;;6.50;;
77191;SDS011;66172;48.526;8.078;2023-08-17T07:23:17;13.53;;;6.10;;
77191;SDS011;66172;48.526;8.078;2023-08-17T07:25:43;10.90;;;5.95;;
77191;SDS011;66172;48.526;8.078;2023-08-17T07:28:09;10.38;;;5.80;;
77191;SDS011;66172;48.526;8.078;2023-08-17T07:30:35;10.50;;;5.70;;
77191;SDS011;66172;48.526;8.078;2023-08-17T07:33:01;9.80;;;5.55;;
77191;SDS011;66172;48.526;8.078;2023-08-17T07:35:27;12.68;;;5.82;;
77191;SDS011;66172;48.526;8.078;2023-08-17T07:37:53;11.43;;;6.32;;
77191;SDS011;66172;48.526;8.078;2023-08-17T07:40:19;11.23;;;5.87;;
77191;SDS011;66172;48.526;8.078;2023-08-17T07:42:45;11.55;;;6.90;;
77191;SDS011;66172;48.526;8.078;2023-08-17T07:45:12;12.43;;;6.40;;
77191;SDS011;66172;48.526;8.078;2023-08-17T07:47:38;12.20;;;6.15;;
77191;SDS011;66172;48.526;8.078;2023-08-17T07:50:04;11.60;;;5.77;;
77191;SDS011;66172;48.526;8.078;2023-08-17T07:52:31;11.23;;;6.38;;
77191;SDS011;66172;48.526;8.078;2023-08-17T07:54:57;11.13;;;6.65;;
77191;SDS011;66172;48.526;8.078;2023-08-17T07:57:23;11.07;;;6.07;;
77191;SDS011;66172;48.526;8.078;2023-08-17T07:59:48;12.70;;;6.00;;
77191;SDS011;66172;48.526;8.078;2023-08-17T08:02:15;10.25;;;6.22;;
77191;SDS011;66172;48.526;8.078;2023-08-17T08:04:41;11.05;;;5.85;;
77191;SDS011;66172;48.526;8.078;2023-08-17T08:07:06;11.00;;;5.53;;
77191;SDS011;66172;48.526;8.078;2023-08-17T08:09:32;12.07;;;5.72;;
77191;SDS011;66172;48.526;8.078;2023-08-17T08:11:58;10.65;;;5.65;;
77191;SDS011;66172;48.526;8.078;2023-08-17T08:14:24;10.43;;;5.50;;
77191;SDS011;66172;48.526;8.078;2023-08-17T08:16:50;10.33;;;5.77;;
77191;SDS011;66172;48.526;8.078;2023-08-17T08:19:16;10.52;;;5.60;;
77191;SDS011;66172;48.526;8.078;2023-08-17T08:21:42;9.00;;;4.97;;
77191;SDS011;66172;48.526;8.078;2023-08-17T08:24:08;9.20;;;5.13;;
77191;SDS011;66172;48.526;8.078;2023-08-17T08:26:34;8.85;;;5.13;;
77191;SDS011;66172;48.526;8.078;2023-08-17T08:29:00;8.88;;;5.50;;
77191;SDS011;66172;48.526;8.078;2023-08-17T08:31:26;10.63;;;5.82;;
77191;SDS011;66172;48.526;8.078;2023-08-17T08:33:52;9.63;;;5.80;;
77191;SDS011;66172;48.526;8.078;2023-08-17T08:36:18;8.85;;;5.40;;
77191;SDS011;66172;48.526;8.078;2023-08-17T08:38:44;10.20;;;5.93;;
77191;SDS011;66172;48.526;8.078;2023-08-17T08:41:11;9.25;;;5.32;;
77191;SDS011;66172;48.526;8.078;2023-08-17T08:43:37;9.82;;;5.47;;
77191;SDS011;66172;48.526;8.078;2023-08-17T08:46:04;9.43;;;5.70;;
77191;SDS011;66172;48.526;8.078;2023-08-17T08:48:31;10.63;;;5.35;;
77191;SDS011;66172;48.526;8.078;2023-08-17T08:50:59;8.82;;;5.45;;
77191;SDS011;66172;48.526;8.078;2023-08-17T08:53:31;9.40;;;5.40;;
77191;SDS011;66172;48.526;8.078;2023-08-17T08:56:03;13.05;;;6.15;;
77191;SDS011;66172;48.526;8.078;2023-08-17T08:58:30;10.03;;;5.63;;
77191;SDS011;66172;48.526;8.078;2023-08-17T09:00:58;9.82;;;5.45;;
77191;SDS011;66172;48.526;8.078;2023-08-17T09:03:26;10.48;;;5.20;;
77191;SDS011;66172;48.526;8.078;2023-08-17T09:05:52;8.52;;;5.75;;
77191;SDS011;66172;48.526;8.078;2023-08-17T09:08:21;8.63;;;6.05;;
77191;SDS011;66172;48.526;8.078;2023-08-17T09:10:48;13.60;;;5.90;;
77191;SDS011;66172;48.526;8.078;2023-08-17T09:13:15;10.52;;;5.47;;
77191;SDS011;66172;48.526;8.078;2023-08-17T09:15:41;9.45;;;6.03;;
77191;SDS011;66172;48.526;8.078;2023-08-17T09:18:07;9.68;;;5.97;;
77191;SDS011;66172;48.526;8.078;2023-08-17T09:20:40;12.33;;;5.57;;
77191;SDS011;66172;48.526;8.078;2023-08-17T09:23:11;8.77;;;5.57;;
77191;SDS011;66172;48.526;8.078;2023-08-17T09:25:39;9.20;;;5.70;;
77191;SDS011;66172;48.526;8.078;2023-08-17T09:28:06;9.45;;;5.97;;
77191;SDS011;66172;48.526;8.078;2023-08-17T09:33:20;9.70;;;5.37;;
77191;SDS011;66172;48.526;8.078;2023-08-17T09:35:47;8.15;;;5.38;;
77191;SDS011;66172;48.526;8.078;2023-08-17T09:38:14;8.50;;;5.38;;
77191;SDS011;66172;48.526;8.078;2023-08-17T09:40:40;9.65;;;5.35;;
77191;SDS011;66172;48.526;8.078;2023-08-17T09:43:06;10.73;;;5.20;;
77191;SDS011;66172;48.526;8.078;2023-08-17T09:45:32;10.87;;;5.50;;
77191;SDS011;66172;48.526;8.078;2023-08-17T09:47:59;9.45;;;5.80;;
77191;SDS011;66172;48.526;8.078;2023-08-17T09:50:25;8.38;;;5.18;;
77191;SDS011;66172;48.526;8.078;2023-08-17T09:52:54;8.40;;;5.50;;
77191;SDS011;66172;48.526;8.078;2023-08-17T09:55:23;11.40;;;5.80;;
77191;SDS011;66172;48.526;8.078;2023-08-17T09:57:50;8.20;;;5.33;;
77191;SDS011;66172;48.526;8.078;2023-08-17T10:00:17;10.38;;;5.55;;
77191;SDS011;66172;48.526;8.078;2023-08-17T10:02:45;9.13;;;5.22;;
77191;SDS011;66172;48.526;8.078;2023-08-17T10:05:15;8.65;;;5.95;;
77191;SDS011;66172;48.526;8.078;2023-08-17T10:07:46;8.07;;;4.88;;
77191;SDS011;66172;48.526;8.078;2023-08-17T10:10:16;10.77;;;5.10;;
77191;SDS011;66172;48.526;8.078;2023-08-17T10:12:57;7.32;;;4.80;;
77191;SDS011;66172;48.526;8.078;2023-08-17T10:15:33;10.15;;;5.78;;
77191;SDS011;66172;48.526;8.078;2023-08-17T10:18:07;9.82;;;5.40;;
77191;SDS011;66172;48.526;8.078;2023-08-17T10:20:40;7.72;;;5.30;;
77191;SDS011;66172;48.526;8.078;2023-08-17T10:23:13;8.23;;;5.60;;
77191;SDS011;66172;48.526;8.078;2023-08-17T10:25:42;8.20;;;5.60;;
77191;SDS011;66172;48.526;8.078;2023-08-17T10:28:09;10.38;;;6.20;;
77191;SDS011;66172;48.526;8.078;2023-08-17T10:30:36;8.10;;;5.80;;
77191;SDS011;66172;48.526;8.078;2023-08-17T10:33:06;9.73;;;5.90;;
77191;SDS011;66172;48.526;8.078;2023-08-17T10:35:33;12.27;;;5.80;;
77191;SDS011;66172;48.526;8.078;2023-08-17T10:38:02;9.18;;;5.93;;
77191;SDS011;66172;48.526;8.078;2023-08-17T10:40:33;9.00;;;5.80;;
77191;SDS011;66172;48.526;8.078;2023-08-17T10:43:01;9.68;;;6.07;;
77191;SDS011;66172;48.526;8.078;2023-08-17T10:45:27;10.05;;;6.28;;
77191;SDS011;66172;48.526;8.078;2023-08-17T10:47:59;14.97;;;6.03;;
77191;SDS011;66172;48.526;8.078;2023-08-17T10:50:35;10.48;;;5.65;;
77191;SDS011;66172;48.526;8.078;2023-08-17T10:53:04;8.82;;;5.40;;
77191;SDS011;66172;48.526;8.078;2023-08-17T10:55:35;9.30;;;5.60;;
77191;SDS011;66172;48.526;8.078;2023-08-17T10:58:07;10.20;;;5.25;;
77191;SDS011;66172;48.526;8.078;2023-08-17T11:00:34;9.20;;;5.40;;
77191;SDS011;66172;48.526;8.078;2023-08-17T11:03:09;10.00;;;5.72;;
77191;SDS011;66172;48.526;8.078;2023-08-17T11:08:21;10.00;;;6.00;;
77191;SDS011;66172;48.526;8.078;2023-08-17T11:11:06;9.65;;;5.78;;
77191;SDS011;66172;48.526;8.078;2023-08-17T11:13:39;9.03;;;5.57;;
77191;SDS011;66172;48.526;8.078;2023-08-17T11:16:09;8.95;;;5.63;;
77191;SDS011;66172;48.526;8.078;2023-08-17T11:18:36;11.07;;;5.45;;
77191;SDS011;66172;48.526;8.078;2023-08-17T11:21:05;8.05;;;5.60;;
77191;SDS011;66172;48.526;8.078;2023-08-17T11:23:32;8.93;;;5.82;;
77191;SDS011;66172;48.526;8.078;2023-08-17T11:26:00;8.83;;;6.13;;
77191;SDS011;66172;48.526;8.078;2023-08-17T11:28:26;8.82;;;6.03;;
77191;SDS011;66172;48.526;8.078;2023-08-17T11:30:58;8.95;;;5.68;;
77191;SDS011;66172;48.526;8.078;2023-08-17T11:33:26;7.35;;;5.50;;
77191;SDS011;66172;48.526;8.078;2023-08-17T11:35:55;7.40;;;5.53;;
77191;SDS011;66172;48.526;8.078;2023-08-17T11:38:25;9.90;;;6.13;;
77191;SDS011;66172;48.526;8.078;2023-08-17T11:40:52;9.50;;;5.93;;
77191;SDS011;66172;48.526;8.078;2023-08-17T11:43:18;8.93;;;5.70;;
77191;SDS011;66172;48.526;8.078;2023-08-17T11:45:46;9.27;;;5.78;;
77191;SDS011;66172;48.526;8.078;2023-08-17T11:48:12;7.57;;;5.82;;
77191;SDS011;66172;48.526;8.078;2023-08-17T11:50:38;9.17;;;5.90;;
77191;SDS011;66172;48.526;8.078;2023-08-17T11:53:05;8.13;;;6.00;;
77191;SDS011;66172;48.526;8.078;2023-08-17T11:55:31;8.90;;;5.85;;
77191;SDS011;66172;48.526;8.078;2023-08-17T11:57:57;7.05;;;5.55;;
77191;SDS011;66172;48.526;8.078;2023-08-17T12:00:23;9.48;;;5.80;;
77191;SDS011;66172;48.526;8.078;2023-08-17T12:02:51;8.93;;;5.90;;
77191;SDS011;66172;48.526;8.078;2023-08-17T12:05:21;8.75;;;5.32;;
77191;SDS011;66172;48.526;8.078;2023-08-17T12:07:54;8.02;;;5.45;;
77191;SDS011;66172;48.526;8.078;2023-08-17T12:10:20;9.48;;;5.50;;
77191;SDS011;66172;48.526;8.078;2023-08-17T12:12:48;8.27;;;5.63;;
77191;SDS011;66172;48.526;8.078;2023-08-17T12:15:17;9.00;;;5.37;;
77191;SDS011;66172;48.526;8.078;2023-08-17T12:17:45;8.05;;;5.28;;
77191;SDS011;66172;48.526;8.078;2023-08-17T12:20:15;7.88;;;4.80;;
77191;SDS011;66172;48.526;8.078;2023-08-17T12:22:45;9.45;;;5.47;;
77191;SDS011;66172;48.526;8.078;2023-08-17T12:25:12;8.60;;;5.43;;
77191;SDS011;66172;48.526;8.078;2023-08-17T12:27:39;8.23;;;5.50;;
77191;SDS011;66172;48.526;8.078;2023-08-17T12:30:11;9.15;;;5.35;;
77191;SDS011;66172;48.526;8.078;2023-08-17T12:32:38;9.18;;;5.85;;
77191;SDS011;66172;48.526;8.078;2023-08-17T12:35:04;8.68;;;5.63;;
77191;SDS011;66172;48.526;8.078;2023-08-17T12:37:30;10.70;;;5.40;;
77191;SDS011;66172;48.526;8.078;2023-08-17T12:39:56;8.40;;;5.43;;
77191;SDS011;66172;48.526;8.078;2023-08-17T12:42:22;8.30;;;5.60;;
77191;SDS011;66172;48.526;8.078;2023-08-17T12:44:48;9.88;;;6.10;;
77191;SDS011;66172;48.526;8.078;2023-08-17T12:47:14;7.23;;;5.37;;
77191;SDS011;66172;48.526;8.078;2023-08-17T12:49:40;9.75;;;5.70;;
77191;SDS011;66172;48.526;8.078;2023-08-17T12:52:06;10.73;;;5.47;;
77191;SDS011;66172;48.526;8.078;2023-08-17T12:54:32;9.57;;;6.00;;
77191;SDS011;66172;48.526;8.078;2023-08-17T12:56:58;9.98;;;5.45;;
77191;SDS011;66172;48.526;8.078;2023-08-17T12:59:23;8.68;;;5.50;;
77191;SDS011;66172;48.526;8.078;2023-08-17T13:01:49;10.70;;;5.80;;
77191;SDS011;66172;48.526;8.078;2023-08-17T13:04:15;9.53;;;5.77;;
77191;SDS011;66172;48.526;8.078;2023-08-17T13:06:41;9.13;;;5.70;;
77191;SDS011;66172;48.526;8.078;2023-08-17T13:09:07;8.38;;;6.00;;
77191;SDS011;66172;48.526;8.078;2023-08-17T13:11:33;9.77;;;5.07;;
77191;SDS011;66172;48.526;8.078;2023-08-17T13:13:59;9.38;;;5.70;;
77191;SDS011;66172;48.526;8.078;2023-08-17T13:16:25;9.02;;;5.43;;
77191;SDS011;66172;48.526;8.078;2023-08-17T13:18:51;8.67;;;5.90;;
77191;SDS011;66172;48.526;8.078;2023-08-17T13:21:16;9.63;;;5.30;;
77191;SDS011;66172;48.526;8.078;2023-08-17T13:23:43;8.43;;;5.68;;
77191;SDS011;66172;48.526;8.078;2023-08-17T13:26:10;9.48;;;6.20;;
77191;SDS011;66172;48.526;8.078;2023-08-17T13:28:36;8.50;;;5.60;;
77191;SDS011;66172;48.526;8.078;2023-08-17T13:31:02;9.40;;;5.70;;
77191;SDS011;66172;48.526;8.078;2023-08-17T13:33:27;10.10;;;5.43;;
77191;SDS011;66172;48.526;8.078;2023-08-17T13:35:53;9.35;;;5.60;;
77191;SDS011;66172;48.526;8.078;2023-08-17T13:38:20;8.53;;;5.70;;
77191;SDS011;66172;48.526;8.078;2023-08-17T13:40:45;7.15;;;5.10;;
77191;SDS011;66172;48.526;8.078;2023-08-17T13:43:12;8.57;;;5.35;;
77191;SDS011;66172;48.526;8.078;2023-08-17T13:45:38;12.02;;;5.78;;
77191;SDS011;66172;48.526;8.078;2023-08-17T13:48:06;8.40;;;5.43;;
77191;SDS011;66172;48.526;8.078;2023-08-17T13:50:33;8.65;;;5.25;;
77191;SDS011;66172;48.526;8.078;2023-08-17T13:52:59;10.05;;;5.30;;
77191;SDS011;66172;48.526;8.078;2023-08-17T13:55:26;9.20;;;5.47;;
77191;SDS011;66172;48.526;8.078;2023-08-17T13:57:53;8.63;;;5.68;;
77191;SDS011;66172;48.526;8.078;2023-08-17T14:00:21;9.87;;;5.40;;
77191;SDS011;66172;48.526;8.078;2023-08-17T14:02:48;8.65;;;5.85;;
77191;SDS011;66172;48.526;8.078;2023-08-17T14:05:14;8.98;;;5.97;;
77191;SDS011;66172;48.526;8.078;2023-08-17T14:07:40;8.50;;;5.53;;
77191;SDS011;66172;48.526;8.078;2023-08-17T14:10:06;8.30;;;5.33;;
77191;SDS011;66172;48.526;8.078;2023-08-17T14:12:32;9.10;;;5.80;;
77191;SDS011;66172;48.526;8.078;2023-08-17T14:14:59;11.55;;;6.15;;
77191;SDS011;66172;48.526;8.078;2023-08-17T14:17:25;11.20;;;6.00;;
77191;SDS011;66172;48.526;8.078;2023-08-17T14:19:51;10.82;;;6.28;;
77191;SDS011;66172;48.526;8.078;2023-08-17T14:22:17;7.43;;;5.40;;
77191;SDS011;66172;48.526;8.078;2023-08-17T14:24:43;8.90;;;5.82;;
77191;SDS011;66172;48.526;8.078;2023-08-17T14:27:09;9.57;;;5.50;;
77191;SDS011;66172;48.526;8.078;2023-08-17T14:29:35;9.30;;;5.67;;
77191;SDS011;66172;48.526;8.078;2023-08-17T14:32:00;8.82;;;5.70;;
77191;SDS011;66172;48.526;8.078;2023-08-17T14:34:26;8.30;;;5.45;;
77191;SDS011;66172;48.526;8.078;2023-08-17T14:36:52;7.50;;;5.10;;
77191;SDS011;66172;48.526;8.078;2023-08-17T14:39:18;11.70;;;5.25;;
77191;SDS011;66172;48.526;8.078;2023-08-17T14:41:44;8.70;;;5.85;;
77191;SDS011;66172;48.526;8.078;2023-08-17T14:44:10;7.97;;;5.32;;
77191;SDS011;66172;48.526;8.078;2023-08-17T14:46:36;10.60;;;5.47;;
77191;SDS011;66172;48.526;8.078;2023-08-17T14:49:04;9.20;;;5.60;;